Latest Weather Observations for Hughenden

IDQ60801

Issued at 9:42 pm EST Tuesday 4 August 2020 (issued every 10 minutes, with the page automatically refreshed every 10 minutes)

About weather observations | Map of weather stations | Latest weather observations for QLD | Other Formats
Station Details ID: 030022 Name: HUGHENDEN AIRPORT Lat: -20.82 Lon: 144.23 Height: 316.4 m
Data from the previous 72 hours. | See also: Recent months at Hughenden
Date/Time
EST
Temp
°C
App
Temp
°C
Dew
Point
°C
Rel
Hum
%
Delta-T
°C
Wind Press
QNH
hPa
Press
MSL
hPa
Rain since
9am
mm
Dir  Spd
km/h
Gust
km/h
Spd
kts
Gust
kts
04/09:30pm 19.0 15.8 5.1 40 6.9 NNE 11 13 6 7 1013.9 1012.9 0.0
04/09:00pm 19.4 17.2 5.1 39 7.1 SE 6 7 3 4 1013.9 1012.9 0.0
04/08:30pm 21.2 20.0 4.7 34 8.2 CALM 0 7 0 4 1013.8 1012.8 0.0
04/08:00pm 21.5 19.3 5.4 35 8.1 W 6 6 3 3 1013.6 1012.6 0.0
04/07:30pm 21.1 19.5 4.6 34 8.2 SW 2 6 1 3 1013.0 1012.1 0.0
04/07:00pm 23.1 20.8 4.6 30 9.3 SW 6 7 3 4 1012.6 1011.7 0.0
04/06:30pm 25.5 23.6 5.1 27 10.5 W 4 6 2 3 1012.4 1011.4 0.0
04/06:00pm 26.8 24.6 5.1 25 11.3 W 6 9 3 5 1012.2 1011.2 0.0
04/05:30pm 28.0 24.5 5.6 24 11.8 W 13 15 7 8 1011.9 1010.9 0.0
04/05:00pm 28.2 25.4 5.1 23 12.1 W 9 17 5 9 1011.7 1010.7 0.0
04/04:30pm 28.7 26.0 5.5 23 12.3 W 9 15 5 8 1011.6 1010.6 0.0
04/04:00pm 29.2 26.6 6.0 23 12.4 SSW 9 19 5 10 1011.5 1010.5 0.0
04/03:30pm 27.9 25.3 6.1 25 11.6 WSW 9 13 5 7 1011.7 1010.7 0.0
04/03:00pm 27.9 24.5 6.1 25 11.6 SSW 13 20 7 11 1012.0 1011.0 0.0
04/02:30pm 27.7 25.6 5.9 25 11.5 SW 6 15 3 8 1012.3 1011.3 0.0
04/02:00pm 27.8 24.4 6.0 25 11.6 SW 13 17 7 9 1012.6 1011.7 0.0
04/01:30pm 27.3 23.8 5.6 25 11.4 SSW 13 22 7 12 1013.0 1012.1 0.0
04/01:00pm 27.7 25.1 5.9 25 11.5 N 9 13 5 7 1013.7 1012.7 0.0
04/12:30pm 26.9 24.0 6.3 27 10.9 SW 11 15 6 8 1014.4 1013.4 0.0
04/12:00pm 27.6 24.8 6.9 27 11.1 WSW 11 20 6 11 1014.8 1013.8 0.0
04/11:30am 26.9 25.0 7.4 29 10.5 WNW 7 17 4 9 1015.2 1014.2 0.0
04/11:00am 26.1 24.3 8.1 32 9.8 NNW 7 13 4 7 1015.6 1014.7 0.0
04/10:30am 25.6 24.5 8.6 34 9.3 NNW 4 13 2 7 1015.9 1015.0 0.0
04/10:00am 24.0 22.5 9.2 39 8.1 N 7 15 4 8 1016.1 1015.2 0.0
04/09:30am 22.5 20.7 9.3 43 7.2 NE 9 13 5 7 1016.0 1015.1 0.0
04/09:00am 20.9 18.3 9.5 48 6.2 NE 13 17 7 9 1015.9 1015.0 0.0
04/08:30am 19.5 16.2 9.4 52 5.4 NE 17 20 9 11 1015.6 1014.7 0.0
04/08:00am 18.4 15.5 9.5 56 4.8 NE 15 20 8 11 1015.3 1014.3 0.0
04/07:30am 17.1 14.9 9.5 61 4.0 NNE 11 15 6 8 1015.1 1014.1 0.0
04/07:00am 15.6 13.4 9.3 66 3.3 NNE 11 13 6 7 1014.9 1013.9 0.0
04/06:30am 14.9 12.6 9.1 68 3.0 N 11 13 6 7 1014.5 1013.5 0.0
04/06:00am 15.2 13.4 9.6 69 2.9 NNE 9 11 5 6 1014.3 1013.3 0.0
04/05:30am 15.1 12.8 9.0 67 3.2 NNE 11 11 6 6 1014.0 1013.0 0.0
04/05:00am 16.1 14.3 9.3 64 3.6 NNE 9 13 5 7 1013.8 1012.8 0.0
04/04:30am 17.2 15.2 10.1 63 3.8 NNE 11 15 6 8 1013.9 1012.9 0.0
04/04:00am 16.0 13.3 9.0 63 3.7 NNE 13 19 7 10 1013.9 1012.9 0.0
04/03:30am 16.9 15.0 9.1 60 4.1 N 9 13 5 7 1014.1 1013.1 0.0
04/03:00am 17.3 15.2 8.2 55 4.7 N 9 11 5 6 1014.3 1013.3 0.0
04/02:30am 17.9 15.6 7.6 51 5.3 NNE 9 11 5 6 1014.5 1013.5 0.0
04/02:00am 18.5 15.9 7.6 49 5.6 NNE 11 13 6 7 1014.6 1013.6 0.0
04/01:30am 20.0 17.0 7.7 45 6.4 N 13 17 7 9 1014.7 1013.7 0.0
04/01:00am 21.0 17.1 6.9 40 7.3 NNE 17 20 9 11 1014.9 1013.9 0.0
04/12:30am 21.5 17.8 6.2 37 7.8 NNE 15 20 8 11 1015.1 1014.1 0.0
04/12:00am 21.1 17.4 6.2 38 7.6 ESE 15 20 8 11 1015.0 1014.0 0.0
 
Date/Time
EST
Temp
°C
App
Temp
°C
Dew
Point
°C
Rel
Hum
%
Delta-T
°C
Wind Press
QNH
hPa
Press
MSL
hPa
Rain since
9am
mm
Dir  Spd
km/h
Gust
km/h
Spd
kts
Gust
kts
03/11:30pm 20.7 17.0 6.3 39 7.4 ESE 15 19 8 10 1015.3 1014.3 0.0
03/11:00pm 20.9 17.6 6.4 39 7.4 ESE 13 17 7 9 1015.6 1014.7 0.0
03/10:30pm 20.5 17.5 6.1 39 7.3 ESE 11 15 6 8 1015.4 1014.5 0.0
03/10:00pm 20.0 17.3 5.6 39 7.2 S 9 13 5 7 1015.4 1014.5 0.0
03/09:30pm 20.8 17.8 6.0 38 7.5 NNE 11 13 6 7 1015.3 1014.3 0.0
03/09:00pm 20.9 17.5 6.1 38 7.5 NNE 13 15 7 8 1015.1 1014.1 0.0
03/08:30pm 21.0 18.4 6.2 38 7.6 ESE 9 11 5 6 1014.9 1013.9 0.0
03/08:00pm 21.3 18.6 5.6 36 7.9 SSE 9 11 5 6 1014.5 1013.5 0.0
03/07:30pm 22.0 19.0 5.8 35 8.3 SE 11 13 6 7 1014.2 1013.2 0.0
03/07:00pm 21.8 19.0 5.3 34 8.3 SSE 9 11 5 6 1013.8 1012.8 0.0
03/06:30pm 22.7 20.2 4.7 31 9.0 ESE 7 7 4 4 1013.5 1012.5 0.0
03/06:00pm 24.7 22.4 5.5 29 9.9 SSE 7 9 4 5 1013.3 1012.4 0.0
03/05:30pm 25.7 22.7 5.8 28 10.4 SSW 11 13 6 7 1013.2 1012.3 0.0
03/05:00pm 26.8 25.1 5.7 26 11.1 W 4 7 2 4 1013.1 1012.2 0.0
03/04:30pm 26.4 24.4 6.4 28 10.6 W 6 13 3 7 1013.1 1012.2 0.0
03/04:00pm 27.2 25.9 6.0 26 11.2 NE 2 6 1 3 1013.1 1012.2 0.0
03/03:30pm 26.3 23.8 6.4 28 10.5 S 9 15 5 8 1013.5 1012.5 0.0
03/03:00pm 26.4 23.9 6.4 28 10.6 NNE 9 17 5 9 1013.9 1012.9 0.0
03/02:30pm 26.0 23.2 7.1 30 10.1 NNE 11 17 6 9 1014.2 1013.2 0.0
03/02:00pm 25.6 23.2 7.2 31 9.8 NW 9 13 5 7 1014.7 1013.7 0.0
03/01:30pm 25.2 23.6 7.8 33 9.4 N 6 17 3 9 1015.4 1014.5 0.0
03/01:00pm 24.0 20.3 8.0 36 8.6 NE 17 26 9 14 1015.9 1015.0 0.0
03/12:30pm 23.2 19.4 8.9 40 7.8 NE 19 24 10 13 1016.5 1015.6 0.0
03/12:00pm 22.1 18.2 8.6 42 7.2 NE 19 28 10 15 1017.3 1016.3 0.0
03/11:30am 21.2 17.3 8.8 45 6.7 NE 19 22 10 12 1017.9 1016.9 0.0
03/11:00am 21.0 17.5 8.9 46 6.5 NE 17 20 9 11 1018.4 1017.5 0.0
03/10:30am 20.3 15.8 8.6 47 6.2 NE 22 28 12 15 1018.5 1017.6 0.0
03/10:00am 20.0 15.6 9.0 49 5.9 NE 22 28 12 15 1018.6 1017.7 0.0
03/09:30am 19.7 15.8 9.6 52 5.5 NE 20 26 11 14 1018.6 1017.7 0.0
03/09:00am 19.2 15.5 9.4 53 5.2 NE 19 24 10 13 1018.4 1017.5 0.0
03/08:30am 19.1 15.8 9.6 54 5.1 NE 17 28 9 15 1017.9 1016.9 0.0
03/08:00am 19.0 15.3 10.0 56 4.9 NE 20 28 11 15 1017.6 1016.6 0.0
03/07:30am 18.9 15.8 10.2 57 4.7 NE 17 20 9 11 1017.3 1016.3 0.0
03/07:00am 19.0 15.6 10.6 58 4.6 NE 19 24 10 13 1017.1 1016.1 0.0
03/06:30am 19.2 17.0 10.7 58 4.7 NE 13 19 7 10 1016.9 1015.9 0.0
03/06:00am 19.2 16.5 10.2 56 4.9 NE 15 19 8 10 1016.3 1015.4 0.0
03/05:30am 19.3 17.0 10.3 56 4.9 NE 13 17 7 9 1015.9 1015.0 0.0
03/05:00am 19.4 16.6 10.1 55 5.1 NE 15 20 8 11 1015.8 1014.9 0.0
03/04:30am 19.6 17.6 10.0 54 5.2 NE 11 13 6 7 1015.6 1014.7 0.0
03/04:00am 19.6 16.8 10.0 54 5.2 NE 15 20 8 11 1015.6 1014.7 0.0
03/03:30am 19.9 17.1 10.0 53 5.4 NE 15 22 8 12 1015.6 1014.7 0.0
03/03:00am 20.0 16.8 10.1 53 5.4 NE 17 20 9 11 1016.0 1015.1 0.0
03/02:30am 19.3 17.1 9.5 53 5.3 NE 11 13 6 7 1016.2 1015.3 0.0
03/02:00am 19.5 17.3 9.4 52 5.4 ENE 11 15 6 8 1016.4 1015.5 0.0
03/01:30am 19.5 16.9 9.4 52 5.4 NE 13 15 7 8 1016.9 1015.9 0.0
03/01:00am 19.5 17.3 9.4 52 5.4 NE 11 15 6 8 1017.0 1016.0 0.0
03/12:30am 18.6 15.8 8.6 52 5.3 ENE 13 15 7 8 1017.1 1016.1 0.0
03/12:00am 18.6 16.5 8.3 51 5.4 SE 9 11 5 6 1017.3 1016.3 0.0
 
Date/Time
EST
Temp
°C
App
Temp
°C
Dew
Point
°C
Rel
Hum
%
Delta-T
°C
Wind Press
QNH
hPa
Press
MSL
hPa
Rain since
9am
mm
Dir  Spd
km/h
Gust
km/h
Spd
kts
Gust
kts
02/11:30pm 18.7 16.9 7.8 49 5.7 ESE 7 11 4 6 1017.3 1016.3 0.0
02/11:00pm 19.8 16.2 8.2 47 6.1 ENE 17 19 9 10 1017.1 1016.1 0.0
02/10:30pm 20.9 17.6 8.2 44 6.7 NE 15 22 8 12 1017.5 1016.5 0.0
02/10:00pm 21.1 16.8 7.7 42 7.0 NE 20 26 11 14 1017.6 1016.6 0.0
02/09:30pm 21.2 16.9 7.1 40 7.3 NE 19 28 10 15 1017.5 1016.5 0.0
02/09:00pm 21.6 17.1 7.1 39 7.5 NE 20 28 11 15 1017.6 1016.6 0.0
02/08:30pm 21.9 17.5 6.6 37 7.9 ENE 19 24 10 13 1017.5 1016.5 0.0
02/08:00pm 22.7 18.1 6.5 35 8.4 NE 20 28 11 15 1017.2 1016.2 0.0
02/07:30pm 22.7 18.9 6.0 34 8.6 ENE 15 19 8 10 1017.0 1016.0 0.0
02/07:00pm 23.4 18.9 6.2 33 8.9 NE 19 22 10 12 1016.6 1015.7 0.0
02/06:30pm 23.8 19.3 6.1 32 9.2 ENE 19 24 10 13 1016.3 1015.4 0.0
02/06:00pm 24.3 20.5 5.6 30 9.6 E 15 19 8 10 1016.1 1015.2 0.0
02/05:30pm 25.4 21.2 5.6 28 10.3 ENE 17 22 9 12 1016.0 1015.1 0.0
02/05:00pm 26.1 21.9 5.7 27 10.6 NE 17 26 9 14 1015.9 1015.0 0.0
02/04:30pm 25.9 21.7 5.5 27 10.6 ENE 17 30 9 16 1015.8 1014.9 0.0
02/04:00pm 26.5 22.6 5.5 26 10.9 NE 15 26 8 14 1016.0 1015.1 0.0
02/03:30pm 25.9 21.7 5.5 27 10.6 NE 17 30 9 16 1016.2 1015.3 0.0
02/03:00pm 26.2 21.5 5.2 26 10.9 NE 19 32 10 17 1016.4 1015.5 0.0
02/02:30pm 25.2 21.2 4.9 27 10.4 NE 15 20 8 11 1016.8 1015.8 0.0
02/02:00pm 25.7 21.4 5.3 27 10.5 ENE 17 28 9 15 1017.2 1016.2 0.0
02/01:30pm 24.9 20.1 4.6 27 10.3 ENE 19 30 10 16 1017.6 1016.6 0.0
02/01:00pm 25.0 20.3 5.2 28 10.2 NE 19 32 10 17 1018.5 1017.6 0.0
02/12:30pm 23.6 18.8 4.5 29 9.6 ENE 19 32 10 17 1019.2 1018.3 0.0
02/12:00pm 23.4 17.7 4.9 30 9.3 ENE 24 32 13 17 1019.6 1018.7 0.0
02/11:30am 22.9 16.8 4.9 31 9.1 ENE 26 39 14 21 1020.3 1019.3 0.0
02/11:00am 22.6 16.3 5.5 33 8.7 ENE 28 37 15 20 1020.9 1020.0 0.0
02/10:30am 22.2 16.2 5.2 33 8.6 ENE 26 35 14 19 1021.4 1020.5 0.0
02/10:00am 21.3 15.6 4.8 34 8.2 E 24 33 13 18 1021.8 1020.9 0.0
02/09:30am 20.1 14.1 5.4 38 7.3 ENE 26 39 14 21 1021.9 1021.0 0.0
02/09:00am 18.7 11.7 6.2 44 6.3 ENE 32 41 17 22 1021.6 1020.7 0.0
02/08:48am 18.3 11.9 6.8 47 5.8 ENE 30 41 16 22 1021.6 1020.7 0.0
02/08:30am 17.2 13.8 7.5 53 5.0 ENE 15 22 8 12 1021.7 1020.8 0.0
02/08:00am 16.0 13.4 7.7 58 4.2 NE 11 17 6 9 1021.3 1020.4 0.0
02/07:30am 14.0 11.0 7.5 65 3.3 ESE 13 15 7 8 1021.1 1020.2 0.0
02/07:00am 12.4 9.5 6.7 68 2.8 SE 11 15 6 8 1020.8 1019.8 0.0
02/06:30am 12.4 9.4 6.0 65 3.1 SE 11 13 6 7 1020.5 1019.5 0.0
02/06:00am 11.8 8.7 5.4 65 3.0 ESE 11 11 6 6 1020.1 1019.1 0.0
02/05:30am 12.2 9.6 4.4 59 3.6 NE 7 9 4 5 1019.9 1019.0 0.0
02/05:00am 14.8 11.4 5.9 55 4.3 ENE 13 17 7 9 1019.6 1018.7 0.0
02/04:30am 15.4 11.6 5.6 52 4.8 NE 15 20 8 11 1019.4 1018.5 0.0
02/04:00am 13.9 10.6 4.5 53 4.4 ESE 11 13 6 7 1019.3 1018.4 0.0
02/03:30am 13.8 10.1 4.4 53 4.4 ESE 13 15 7 8 1019.3 1018.4 0.0
02/03:00am 13.8 9.7 4.1 52 4.5 E 15 20 8 11 1019.3 1018.4 0.0
02/02:30am 11.2 8.0 2.8 56 3.7 E 9 9 5 5 1019.3 1018.4 0.0
02/02:00am 12.1 9.3 2.3 51 4.3 E 6 9 3 5 1019.7 1018.8 0.0
02/01:30am 14.3 11.7 4.3 51 4.7 NNE 7 9 4 5 1019.9 1019.0 0.0
02/01:00am 13.6 10.7 2.8 48 4.9 NE 7 9 4 5 1020.1 1019.1 0.0
02/12:30am 15.5 12.8 3.6 45 5.5 ENE 7 11 4 6 1020.3 1019.3 0.0
02/12:00am 16.1 13.0 3.5 43 5.9 ESE 9 11 5 6 1020.4 1019.4 0.0
 
Date/Time
EST
Temp
°C
App
Temp
°C
Dew
Point
°C
Rel
Hum
%
Delta-T
°C
Wind Press
QNH
hPa
Press
MSL
hPa
Rain since
9am
mm
Dir  Spd
km/h
Gust
km/h
Spd
kts
Gust
kts
01/11:30pm 16.5 12.8 4.5 45 5.7 E 13 15 7 8 1020.4 1019.4 0.0
01/11:00pm 15.3 12.4 2.8 43 5.7 NE 7 9 4 5 1020.5 1019.5 0.0
01/10:30pm 16.0 13.1 2.4 40 6.2 NE 7 9 4 5 1020.4 1019.4 0.0
01/10:00pm 17.6 14.5 3.5 39 6.6 NNE 9 11 5 6 1020.4 1019.4 0.0

Other formats

Comma delimited format used in spreadsheet applications
http://www.bom.gov.au/fwo/IDQ60801/IDQ60801.94343.axf

JavaScript Object Notation format (JSON) in row-major order
http://www.bom.gov.au/fwo/IDQ60801/IDQ60801.94343.json

Data quality

Most of these data are generated automatically and are frequently updated. Quality checks on data are not normally performed. It is possible for incorrect values to appear. Refer to information at About Latest Weather Observations and please check the disclaimer before using these data.